createdAt,value
2018-12-14T00:03:13.171Z,0.10
2018-12-14T00:08:06.451Z,0.00
2018-12-14T00:12:59.767Z,0.00
2018-12-14T00:17:53.045Z,0.00
2018-12-14T00:22:46.331Z,0.00
2018-12-14T00:43:53.379Z,0.00
2018-12-14T00:48:46.730Z,-0.10
2018-12-14T00:53:40.096Z,-0.10
2018-12-14T00:58:33.378Z,-0.10
2018-12-14T01:03:26.674Z,-0.10
2018-12-14T01:08:19.950Z,-0.20
2018-12-14T01:13:13.235Z,-0.20
2018-12-14T01:18:06.550Z,-0.20
2018-12-14T01:22:59.826Z,-0.20
2018-12-14T01:44:07.363Z,-0.30
2018-12-14T01:49:00.640Z,-0.30
2018-12-14T01:53:53.939Z,-0.40
2018-12-14T01:58:47.251Z,-0.30
2018-12-14T02:03:40.617Z,-0.40
2018-12-14T02:08:33.899Z,-0.40
2018-12-14T02:13:27.199Z,-0.50
2018-12-14T02:18:20.525Z,-0.50
2018-12-14T02:23:13.836Z,-0.50
2018-12-14T02:44:21.747Z,-0.40
2018-12-14T02:49:15.110Z,-0.50
2018-12-14T02:54:08.416Z,-0.50
2018-12-14T02:59:01.828Z,-0.50
2018-12-14T03:03:55.115Z,-0.50
2018-12-14T03:08:48.398Z,-0.50
2018-12-14T03:13:41.827Z,-0.50
2018-12-14T03:18:35.395Z,-0.50
2018-12-14T03:23:28.710Z,-0.50
2018-12-14T03:44:36.869Z,-0.60
2018-12-14T03:49:30.157Z,-0.60
2018-12-14T03:54:23.513Z,-0.70
2018-12-14T03:59:16.814Z,-0.70
2018-12-14T04:04:10.100Z,-0.70
2018-12-14T04:09:04.669Z,-0.70
2018-12-14T04:13:57.975Z,-0.70
2018-12-14T04:18:51.268Z,-0.70
2018-12-14T04:23:44.564Z,-0.70
2018-12-14T04:44:52.218Z,-0.60
2018-12-14T04:49:45.859Z,-0.50
2018-12-14T04:54:39.145Z,-0.50
2018-12-14T04:59:32.426Z,-0.50
2018-12-14T05:04:25.733Z,-0.60
2018-12-14T05:09:19.023Z,-0.60
2018-12-14T05:14:12.324Z,-0.60
2018-12-14T05:19:05.604Z,-0.60
2018-12-14T05:23:58.958Z,-0.60
2018-12-14T05:45:06.657Z,-0.60
2018-12-14T05:49:59.939Z,-0.60
2018-12-14T05:54:53.227Z,-0.60
2018-12-14T05:59:46.530Z,-0.60
2018-12-14T06:04:39.892Z,-0.50
2018-12-14T06:09:33.197Z,-0.40
2018-12-14T06:14:26.484Z,-0.40
2018-12-14T06:19:19.829Z,-0.40
2018-12-14T06:24:13.188Z,-0.40
2018-12-14T06:45:21.133Z,-0.10
2018-12-14T06:50:14.432Z,0.00
2018-12-14T06:55:07.798Z,-0.10
2018-12-14T07:00:01.193Z,0.00
2018-12-14T07:04:54.483Z,0.00
2018-12-14T07:09:47.764Z,-0.10
2018-12-14T07:14:41.059Z,-0.10
2018-12-14T07:19:34.351Z,0.00
2018-12-14T07:24:28.082Z,0.00
2018-12-14T07:45:36.529Z,0.50
2018-12-14T07:50:30.135Z,0.60
2018-12-14T07:55:23.638Z,0.60
2018-12-14T08:00:17.314Z,0.60
2018-12-14T08:05:10.664Z,0.80
2018-12-14T08:10:05.047Z,0.80
2018-12-14T08:15:01.399Z,0.90
2018-12-14T08:19:54.789Z,0.70
2018-12-14T08:24:48.051Z,0.60
2018-12-14T08:45:58.607Z,0.50
2018-12-14T08:50:52.504Z,0.60
2018-12-14T08:55:46.437Z,0.40
2018-12-14T09:00:39.763Z,0.40
2018-12-14T09:05:33.362Z,0.60
2018-12-14T09:10:26.765Z,0.50
2018-12-14T09:15:25.932Z,0.50
2018-12-14T09:20:19.483Z,0.40
2018-12-14T09:25:15.351Z,0.60
2018-12-14T09:46:23.691Z,0.50
2018-12-14T09:51:17.148Z,0.70
2018-12-14T09:56:16.005Z,0.90
2018-12-14T10:01:12.328Z,1.00
2018-12-14T10:06:15.882Z,0.90
2018-12-14T10:11:13.136Z,1.00
2018-12-14T10:16:07.560Z,1.30
2018-12-14T10:21:03.690Z,1.30
2018-12-14T10:26:01.764Z,1.30
2018-12-14T10:47:09.307Z,1.50
2018-12-14T10:52:02.978Z,1.70
2018-12-14T10:56:56.293Z,1.80
2018-12-14T11:01:57.768Z,1.90
2018-12-14T11:06:51.189Z,2.00
2018-12-14T11:11:44.753Z,1.90
2018-12-14T11:16:39.051Z,1.60
2018-12-14T11:21:32.453Z,1.90
2018-12-14T11:26:34.474Z,1.90
2018-12-14T11:47:50.594Z,2.60
2018-12-14T11:52:46.105Z,2.60
2018-12-14T11:57:40.707Z,2.50
2018-12-14T12:02:42.888Z,2.00
2018-12-14T12:07:35.263Z,1.70
2018-12-14T12:12:38.201Z,1.80
2018-12-14T12:17:32.776Z,2.10
2018-12-14T12:22:27.055Z,2.10
2018-12-14T12:27:22.323Z,2.20
2018-12-14T12:48:37.112Z,2.00
2018-12-14T12:53:30.779Z,1.80
2018-12-14T12:58:24.080Z,1.80
2018-12-14T13:03:18.138Z,1.70
2018-12-14T13:08:11.482Z,1.50
2018-12-14T13:13:04.890Z,1.30
2018-12-14T13:17:58.206Z,1.30
2018-12-14T13:22:51.487Z,1.30
2018-12-14T13:27:44.784Z,1.40
2018-12-14T13:48:52.350Z,1.30
2018-12-14T13:53:46.890Z,1.40
2018-12-14T13:58:40.864Z,1.30
2018-12-14T14:03:34.743Z,1.30
2018-12-14T14:08:28.033Z,1.50
2018-12-14T14:13:21.617Z,1.40
2018-12-14T14:18:15.149Z,1.30
2018-12-14T14:23:08.519Z,1.30
2018-12-14T14:28:02.066Z,1.20
2018-12-14T14:32:55.695Z,1.30
2018-12-14T14:54:04.307Z,1.10
2018-12-14T14:58:57.609Z,0.90
2018-12-14T15:03:50.894Z,1.00
2018-12-14T15:08:44.369Z,1.00
2018-12-14T15:13:37.806Z,1.00
2018-12-14T15:34:45.500Z,0.70
2018-12-14T15:39:38.867Z,0.80
2018-12-14T15:44:32.293Z,0.70
2018-12-14T15:49:25.614Z,0.80
2018-12-14T15:54:18.895Z,0.80
2018-12-14T16:10:01.925Z,0.80
2018-12-14T16:14:55.242Z,0.70
2018-12-14T16:19:48.727Z,0.70
2018-12-14T16:24:42.106Z,0.60
2018-12-14T16:45:49.707Z,0.60
2018-12-14T16:50:42.992Z,0.60
2018-12-14T16:55:36.261Z,0.60
2018-12-14T17:00:29.657Z,0.60
2018-12-14T17:05:23.134Z,0.50
2018-12-14T17:10:16.522Z,0.50
2018-12-14T17:15:09.979Z,0.50
2018-12-14T17:20:03.512Z,0.70
2018-12-14T17:24:56.856Z,0.80
2018-12-14T17:46:04.707Z,0.50
2018-12-14T17:50:58.041Z,0.60
2018-12-14T17:55:51.325Z,0.50
2018-12-14T18:00:45.365Z,0.40
2018-12-14T18:05:38.967Z,0.40
2018-12-14T18:10:32.464Z,0.40
2018-12-14T18:15:25.884Z,0.40
2018-12-14T18:20:19.264Z,0.40
2018-12-14T18:25:12.842Z,0.40
2018-12-14T18:46:20.450Z,0.40
2018-12-14T18:51:13.792Z,0.50
2018-12-14T18:56:07.072Z,0.50
2018-12-14T19:01:00.361Z,0.60
2018-12-14T19:05:53.657Z,0.60
2018-12-14T19:10:47.871Z,0.70
2018-12-14T19:15:41.204Z,0.60
2018-12-14T19:20:34.485Z,0.60
2018-12-14T19:25:27.755Z,0.70
2018-12-14T19:46:34.855Z,0.50
2018-12-14T19:51:28.108Z,0.60
2018-12-14T19:56:21.394Z,0.80
2018-12-14T20:01:14.679Z,0.80
2018-12-14T20:06:07.998Z,0.80
2018-12-14T20:11:01.288Z,0.80
2018-12-14T20:15:57.561Z,0.70
2018-12-14T20:20:49.912Z,0.70
2018-12-14T20:25:43.195Z,0.80
2018-12-14T20:46:51.261Z,0.40
2018-12-14T20:51:44.568Z,0.30
2018-12-14T20:56:38.002Z,0.30
2018-12-14T21:01:31.341Z,0.30
2018-12-14T21:06:24.610Z,0.30
2018-12-14T21:11:17.962Z,0.40
2018-12-14T21:16:11.340Z,0.40
2018-12-14T21:21:04.704Z,0.40
2018-12-14T21:25:58.003Z,0.50
2018-12-14T21:47:05.546Z,0.40
2018-12-14T21:51:58.811Z,0.50
2018-12-14T21:56:52.105Z,0.50
2018-12-14T22:01:45.587Z,0.60
2018-12-14T22:06:38.887Z,0.60
2018-12-14T22:11:32.163Z,0.60
2018-12-14T22:16:25.464Z,0.60
2018-12-14T22:21:18.735Z,0.40
2018-12-14T22:26:12.124Z,0.40
2018-12-14T22:47:20.179Z,0.40
2018-12-14T22:52:13.490Z,0.40
2018-12-14T22:57:06.792Z,0.40
2018-12-14T23:02:00.073Z,0.30
2018-12-14T23:06:53.383Z,0.40
2018-12-14T23:11:46.651Z,0.50
2018-12-14T23:16:39.950Z,0.70
2018-12-14T23:21:33.383Z,0.50
2018-12-14T23:26:26.719Z,0.50
2018-12-14T23:47:34.288Z,0.50
2018-12-14T23:52:27.886Z,0.70
2018-12-14T23:57:21.186Z,0.60
